Time;durP1;ratioP1;P1;durP2;ratioP2;P2;SDS_P1;SDS_P2;PMS_P1;PMS_P2;Temp;Humidity;BMP_temperature;BMP_pressure;BME280_temperature;BME280_humidity;BME280_pressure;Samples;Min_cycle;Max_cycle;Signal;HPM_P1;HPM_P2
2022/03/27 00:02:05;;;;;;;26.45;15.05;;;11.80;52.00;;;;;;5069908;28;20105;-76
2022/03/27 00:04:31;;;;;;;22.48;14.73;;;11.80;52.20;;;;;;5069697;28;20494;-76
2022/03/27 00:06:57;;;;;;;24.33;14.95;;;11.80;52.50;;;;;;5070388;28;20123;-76
2022/03/27 00:09:23;;;;;;;24.27;15.00;;;11.70;52.70;;;;;;5067237;28;20033;-76
2022/03/27 00:11:48;;;;;;;25.15;15.25;;;11.70;53.00;;;;;;5069558;28;20028;-76
2022/03/27 00:14:14;;;;;;;24.45;14.85;;;11.70;53.10;;;;;;5071263;28;20115;-77
2022/03/27 00:16:40;;;;;;;26.67;15.35;;;11.60;53.00;;;;;;5073131;28;20068;-77
2022/03/27 00:19:06;;;;;;;32.05;15.43;;;11.60;53.10;;;;;;5072599;28;20047;-77
2022/03/27 00:21:32;;;;;;;27.83;15.10;;;11.60;54.10;;;;;;5069180;28;20021;-76
2022/03/27 00:23:58;;;;;;;25.90;15.05;;;11.60;52.30;;;;;;5071950;28;20033;-76
2022/03/27 00:26:24;;;;;;;33.08;18.10;;;11.50;53.10;;;;;;5069932;28;20032;-76
2022/03/27 00:28:51;;;;;;;32.13;17.75;;;11.50;53.10;;;;;;5068107;28;20128;-77
2022/03/27 00:31:17;;;;;;;28.70;17.52;;;11.50;52.90;;;;;;5067095;28;20597;-77
2022/03/27 00:33:44;;;;;;;34.85;17.50;;;11.50;52.80;;;;;;5070311;28;20031;-77
2022/03/27 00:36:13;;;;;;;33.90;17.98;;;11.50;52.90;;;;;;5075284;28;20031;-77
2022/03/27 00:38:40;;;;;;;35.05;19.83;;;11.50;52.90;;;;;;5070324;28;20036;-77
2022/03/27 00:41:06;;;;;;;36.85;19.90;;;11.50;52.80;;;;;;5068066;28;20021;-76
2022/03/27 00:43:33;;;;;;;35.33;21.63;;;11.50;52.60;;;;;;5072477;28;20032;-78
2022/03/27 00:45:59;;;;;;;38.67;22.08;;;11.50;52.50;;;;;;5071121;28;20042;-77
2022/03/27 00:48:25;;;;;;;37.03;21.02;;;11.50;52.30;;;;;;5067035;28;20028;-76
2022/03/27 00:50:53;;;;;;;37.80;21.40;;;11.40;52.20;;;;;;5078312;28;20029;-76
2022/03/27 00:53:19;;;;;;;42.72;21.40;;;11.40;52.00;;;;;;5069269;28;20051;-76
2022/03/27 00:55:45;;;;;;;36.47;20.92;;;11.50;51.90;;;;;;5071667;28;20033;-76
2022/03/27 00:58:13;;;;;;;33.88;19.33;;;11.50;51.80;;;;;;5068246;28;20036;-76
2022/03/27 01:00:38;;;;;;;44.13;22.42;;;11.40;51.10;;;;;;5065733;28;20059;-77
2022/03/27 01:03:12;;;;;;;35.58;19.65;;;11.40;52.00;;;;;;5071449;28;20032;-77
2022/03/27 01:05:39;;;;;;;44.22;22.33;;;11.40;52.10;;;;;;5069795;28;20070;-76
2022/03/27 01:08:07;;;;;;;37.25;19.48;;;11.40;51.80;;;;;;5067859;28;20029;-76
2022/03/27 01:10:34;;;;;;;33.30;18.30;;;11.30;52.50;;;;;;5069542;28;20041;-76
2022/03/27 01:13:13;;;;;;;34.25;17.33;;;11.30;52.80;;;;;;5066930;28;20060;-76
2022/03/27 01:16:00;;;;;;;38.95;19.00;;;11.30;53.00;;;;;;5068591;28;20024;-77
2022/03/27 01:18:26;;;;;;;32.83;17.90;;;11.20;52.80;;;;;;5079141;28;20028;-79
2022/03/27 01:20:53;;;;;;;39.03;18.17;;;11.10;53.50;;;;;;5071592;28;20041;-76
2022/03/27 01:23:19;;;;;;;30.92;17.67;;;11.20;53.80;;;;;;5066726;28;20029;-77
2022/03/27 01:25:46;;;;;;;30.85;17.40;;;11.10;53.80;;;;;;5067309;28;20449;-77
2022/03/27 01:28:15;;;;;;;43.25;22.42;;;11.00;53.90;;;;;;5076377;28;20044;-77
2022/03/27 01:30:41;;;;;;;30.20;15.77;;;11.00;54.20;;;;;;5069774;28;20036;-76
2022/03/27 01:33:13;;;;;;;33.67;19.40;;;11.00;54.30;;;;;;5070519;28;20463;-79
2022/03/27 01:35:39;;;;;;;38.40;19.17;;;10.90;54.30;;;;;;5068345;28;20028;-76
2022/03/27 01:38:05;;;;;;;35.28;18.05;;;10.80;54.50;;;;;;5070046;28;20031;-76
2022/03/27 01:40:31;;;;;;;33.25;18.20;;;10.80;54.70;;;;;;5066754;28;20139;-76
2022/03/27 01:42:57;;;;;;;40.22;20.70;;;10.80;54.70;;;;;;5072924;28;20031;-76
2022/03/27 01:45:23;;;;;;;40.10;19.50;;;10.70;54.60;;;;;;5077697;28;20040;-75
2022/03/27 01:47:50;;;;;;;36.40;18.30;;;10.80;54.70;;;;;;5074476;28;20039;-76
2022/03/27 01:50:16;;;;;;;37.03;18.75;;;10.70;54.80;;;;;;5076603;28;20020;-78
2022/03/27 01:52:42;;;;;;;33.30;18.00;;;10.70;55.30;;;;;;5070368;28;20028;-76
2022/03/27 01:55:13;;;;;;;36.72;19.45;;;10.70;55.10;;;;;;5068673;28;20025;-78
2022/03/27 01:57:41;;;;;;;39.90;19.05;;;10.70;55.50;;;;;;5064981;28;20074;-76
2022/03/27 02:00:09;;;;;;;37.25;18.95;;;10.70;55.40;;;;;;5075377;28;20051;-76
2022/03/27 02:02:35;;;;;;;35.70;18.92;;;10.70;55.30;;;;;;5069202;28;20111;-78
2022/03/27 02:05:04;;;;;;;34.83;18.23;;;10.70;55.30;;;;;;5066568;28;20024;-76
2022/03/27 02:07:36;;;;;;;35.38;18.92;;;10.70;55.20;;;;;;5068637;28;20056;-76
2022/03/27 02:10:03;;;;;;;44.17;25.05;;;10.70;55.40;;;;;;5066926;28;20036;-76
2022/03/27 02:12:29;;;;;;;47.45;24.33;;;10.70;55.40;;;;;;5078015;28;20517;-76
2022/03/27 02:14:56;;;;;;;34.15;19.02;;;10.70;55.30;;;;;;5075084;28;20028;-77
2022/03/27 02:17:21;;;;;;;37.67;19.30;;;10.70;55.40;;;;;;5078398;28;20785;-76
2022/03/27 02:19:47;;;;;;;31.17;17.42;;;10.70;55.50;;;;;;5071498;28;20042;-77
2022/03/27 02:22:13;;;;;;;32.75;16.77;;;10.70;55.60;;;;;;5072639;28;20024;-77
2022/03/27 02:24:39;;;;;;;34.45;18.63;;;10.60;56.20;;;;;;5065370;28;20029;-76
2022/03/27 02:27:04;;;;;;;37.10;18.33;;;10.60;56.80;;;;;;5069547;28;20062;-76
2022/03/27 02:29:32;;;;;;;31.65;17.75;;;10.50;57.10;;;;;;5069410;28;20585;-77
2022/03/27 02:31:57;;;;;;;37.70;18.77;;;10.60;57.20;;;;;;5068331;28;20024;-79
2022/03/27 02:34:23;;;;;;;39.70;19.50;;;10.50;57.10;;;;;;5068060;28;20032;-77
2022/03/27 02:36:49;;;;;;;34.90;18.27;;;10.50;57.10;;;;;;5067217;28;20028;-76
2022/03/27 02:39:15;;;;;;;31.52;17.27;;;10.50;57.20;;;;;;5075015;28;20414;-77
2022/03/27 02:41:40;;;;;;;34.50;18.05;;;10.50;57.20;;;;;;5067247;28;20028;-79
2022/03/27 02:44:07;;;;;;;34.33;17.35;;;10.50;57.20;;;;;;5067076;28;20545;-76
2022/03/27 02:46:33;;;;;;;29.48;16.27;;;10.40;57.10;;;;;;5072818;28;20081;-76
2022/03/27 02:48:59;;;;;;;30.92;17.85;;;10.30;57.20;;;;;;5072388;28;20448;-78
2022/03/27 02:51:25;;;;;;;35.97;18.02;;;10.30;57.30;;;;;;5064685;28;20514;-76
2022/03/27 02:53:51;;;;;;;35.00;17.45;;;10.30;57.50;;;;;;5081311;28;20040;-76
2022/03/27 02:56:17;;;;;;;35.72;18.00;;;10.20;57.50;;;;;;5075692;28;20032;-76
2022/03/27 02:58:42;;;;;;;31.00;17.65;;;10.20;57.70;;;;;;5062697;28;20033;-79
2022/03/27 03:01:08;;;;;;;30.77;16.30;;;10.10;57.80;;;;;;5062288;28;20033;-77
2022/03/27 03:03:34;;;;;;;32.15;16.48;;;10.10;59.10;;;;;;5078250;28;20444;-77
2022/03/27 03:06:01;;;;;;;32.75;18.02;;;10.10;58.30;;;;;;5077271;28;20036;-76
2022/03/27 03:08:27;;;;;;;31.95;17.83;;;10.00;58.50;;;;;;5068473;28;20608;-76
2022/03/27 03:10:54;;;;;;;33.45;17.77;;;10.00;58.90;;;;;;5066784;28;20074;-76
2022/03/27 03:13:20;;;;;;;35.30;18.27;;;10.00;59.40;;;;;;5082253;28;20036;-76
2022/03/27 03:15:45;;;;;;;40.40;18.23;;;9.90;59.70;;;;;;5074512;28;20020;-76
2022/03/27 03:18:12;;;;;;;36.08;18.60;;;9.90;60.00;;;;;;5067004;28;20452;-76
2022/03/27 03:20:39;;;;;;;33.28;17.50;;;9.80;60.10;;;;;;5066023;28;20402;-76
2022/03/27 03:23:05;;;;;;;31.27;17.58;;;9.80;60.50;;;;;;5069397;28;20024;-77
2022/03/27 03:25:31;;;;;;;35.25;17.67;;;9.80;60.70;;;;;;5070655;28;20627;-76
2022/03/27 03:27:57;;;;;;;32.00;16.08;;;9.70;60.60;;;;;;5070896;28;20130;-76
2022/03/27 03:30:24;;;;;;;30.77;15.05;;;9.70;60.80;;;;;;5068580;28;20043;-76
2022/03/27 03:32:50;;;;;;;25.50;14.50;;;9.70;61.00;;;;;;5070018;28;20062;-77
2022/03/27 03:35:16;;;;;;;23.98;13.60;;;9.70;61.50;;;;;;5072957;28;20017;-77
2022/03/27 03:37:42;;;;;;;24.23;12.85;;;9.60;62.20;;;;;;5074988;28;20035;-76
2022/03/27 03:40:09;;;;;;;26.35;13.65;;;9.60;62.90;;;;;;5076325;28;20089;-76
2022/03/27 03:42:36;;;;;;;26.73;13.50;;;9.60;63.20;;;;;;5070195;28;20086;-76
2022/03/27 03:45:03;;;;;;;27.05;13.90;;;9.50;63.10;;;;;;5072236;28;20146;-76
2022/03/27 03:47:29;;;;;;;23.23;13.82;;;9.50;63.20;;;;;;5068922;28;20569;-77
2022/03/27 03:49:55;;;;;;;25.98;13.20;;;9.40;63.10;;;;;;5067526;28;20025;-77
2022/03/27 03:52:21;;;;;;;25.92;12.85;;;9.40;62.90;;;;;;5071497;28;20523;-77
2022/03/27 03:54:47;;;;;;;23.83;13.32;;;9.30;62.70;;;;;;5080503;28;20024;-77
2022/03/27 03:57:13;;;;;;;27.70;15.13;;;9.30;62.60;;;;;;5070632;28;20058;-77
2022/03/27 03:59:39;;;;;;;28.20;15.07;;;9.30;62.70;;;;;;5070800;28;20090;-77
2022/03/27 04:02:06;;;;;;;26.10;14.65;;;9.30;62.70;;;;;;5079674;28;20080;-76
2022/03/27 04:04:32;;;;;;;27.27;14.95;;;9.20;62.70;;;;;;5072406;28;20163;-77
2022/03/27 04:06:59;;;;;;;29.35;14.57;;;9.20;62.70;;;;;;5068507;28;20025;-76
2022/03/27 04:09:26;;;;;;;25.35;14.43;;;9.20;62.70;;;;;;5068873;28;20033;-77
2022/03/27 04:11:52;;;;;;;24.35;13.35;;;9.10;63.00;;;;;;5081904;28;20044;-76
2022/03/27 04:14:18;;;;;;;25.63;13.48;;;9.10;63.10;;;;;;5070344;28;20021;-76
2022/03/27 04:16:44;;;;;;;23.13;12.88;;;9.10;63.30;;;;;;5069086;28;20133;-77
2022/03/27 04:19:11;;;;;;;24.05;13.95;;;9.00;63.30;;;;;;5069229;28;20040;-76
2022/03/27 04:21:38;;;;;;;24.45;13.10;;;9.00;63.00;;;;;;5074599;28;20056;-78
2022/03/27 04:24:06;;;;;;;25.55;13.32;;;8.90;63.10;;;;;;5068471;28;20037;-77
2022/03/27 04:26:32;;;;;;;22.92;12.95;;;8.90;63.30;;;;;;5066909;28;20024;-77
2022/03/27 04:28:58;;;;;;;24.55;12.63;;;8.80;62.30;;;;;;5068344;28;20052;-77
2022/03/27 04:31:24;;;;;;;25.95;12.75;;;8.70;63.00;;;;;;5070540;28;20075;-76
2022/03/27 04:33:50;;;;;;;24.80;12.95;;;8.70;63.10;;;;;;5066392;28;20372;-76
2022/03/27 04:36:15;;;;;;;24.17;12.95;;;8.70;63.30;;;;;;5071615;28;20025;-76
2022/03/27 04:38:41;;;;;;;23.88;13.75;;;8.70;63.70;;;;;;5071380;28;20036;-76
2022/03/27 04:41:07;;;;;;;27.77;14.45;;;8.70;64.10;;;;;;5074207;28;20066;-76
2022/03/27 04:43:33;;;;;;;22.98;13.23;;;8.60;64.60;;;;;;5069180;28;20028;-76
2022/03/27 04:45:59;;;;;;;28.25;13.65;;;8.60;64.90;;;;;;5068785;28;20028;-76
2022/03/27 04:48:25;;;;;;;53.45;14.75;;;8.60;65.20;;;;;;5070746;28;20032;-76
2022/03/27 04:50:53;;;;;;;32.08;14.00;;;8.50;65.40;;;;;;5069617;28;20035;-76
2022/03/27 04:53:19;;;;;;;26.88;12.95;;;8.50;65.30;;;;;;5069511;28;20025;-76
2022/03/27 04:55:45;;;;;;;36.40;12.77;;;8.50;65.60;;;;;;5067911;28;20032;-76
2022/03/27 04:58:11;;;;;;;27.67;13.57;;;8.50;65.60;;;;;;5076380;28;20036;-76
2022/03/27 05:00:38;;;;;;;32.00;12.82;;;8.40;65.40;;;;;;5077720;28;20032;-76
2022/03/27 05:03:04;;;;;;;32.38;12.68;;;8.40;65.50;;;;;;5069513;28;20117;-77
2022/03/27 05:05:30;;;;;;;24.80;13.13;;;8.40;65.50;;;;;;5073184;28;20514;-76
2022/03/27 05:07:58;;;;;;;23.98;12.93;;;8.30;65.20;;;;;;5067271;28;20024;-77
2022/03/27 05:10:24;;;;;;;20.77;11.82;;;8.30;65.20;;;;;;5071112;28;20028;-78
2022/03/27 05:12:50;;;;;;;28.77;15.05;;;8.30;65.10;;;;;;5074616;28;20085;-76
2022/03/27 05:15:16;;;;;;;27.98;14.10;;;8.20;65.30;;;;;;5076926;28;20028;-76
2022/03/27 05:17:54;;;;;;;27.58;14.38;;;8.20;65.50;;;;;;5065429;28;20052;-76
2022/03/27 05:20:21;;;;;;;24.13;13.75;;;8.20;65.70;;;;;;5070877;28;20434;-78
2022/03/27 05:22:47;;;;;;;22.73;12.77;;;8.20;66.10;;;;;;5068034;28;20036;-76
2022/03/27 05:25:15;;;;;;;25.88;13.65;;;8.10;66.60;;;;;;5070908;28;20025;-75
2022/03/27 05:27:48;;;;;;;23.77;12.07;;;8.10;66.70;;;;;;5074718;28;20114;-76
2022/03/27 05:30:19;;;;;;;22.98;12.63;;;8.10;66.70;;;;;;5065901;28;20055;-78
2022/03/27 05:32:45;;;;;;;;;;;8.10;66.80;;;;;;5073786;28;20037;-75
2022/03/27 05:35:11;;;;;;;22.83;11.77;;;8.00;66.50;;;;;;5068407;28;19915;-76
2022/03/27 05:37:38;;;;;;;23.40;12.25;;;8.00;66.40;;;;;;5066739;28;20028;-76
2022/03/27 05:40:07;;;;;;;24.38;13.23;;;7.90;66.40;;;;;;5069491;28;20068;-76
2022/03/27 05:42:32;;;;;;;24.50;12.88;;;7.80;66.40;;;;;;5065807;28;20127;-75
2022/03/27 05:44:59;;;;;;;23.58;12.18;;;7.80;66.80;;;;;;5067454;28;20487;-75
2022/03/27 05:47:26;;;;;;;26.60;13.98;;;7.80;67.00;;;;;;5071225;28;20111;-76
2022/03/27 05:49:52;;;;;;;30.83;14.20;;;7.80;67.10;;;;;;5068584;28;20157;-76
2022/03/27 05:52:17;;;;;;;24.65;13.38;;;7.70;67.00;;;;;;5068960;28;20530;-75
2022/03/27 05:54:44;;;;;;;27.73;13.88;;;7.70;67.00;;;;;;5067087;28;20020;-76
2022/03/27 05:57:10;;;;;;;29.13;13.57;;;7.70;67.00;;;;;;5080252;28;20025;-76
2022/03/27 05:59:35;;;;;;;29.77;13.57;;;7.70;67.10;;;;;;5068022;28;20032;-76
2022/03/27 06:02:01;;;;;;;26.55;14.40;;;7.80;67.20;;;;;;5071257;28;20380;-76
2022/03/27 06:04:27;;;;;;;27.60;13.52;;;7.80;67.10;;;;;;5070404;28;20027;-78
2022/03/27 06:06:53;;;;;;;21.52;12.10;;;7.90;67.20;;;;;;5067398;28;20025;-77
2022/03/27 06:09:19;;;;;;;21.17;12.45;;;7.90;67.20;;;;;;5081651;28;20051;-76
2022/03/27 06:11:44;;;;;;;22.70;11.88;;;7.90;67.40;;;;;;5068614;28;20115;-78
2022/03/27 06:14:10;;;;;;;22.80;11.38;;;8.00;67.50;;;;;;5068041;28;20036;-78
2022/03/27 06:16:37;;;;;;;23.38;12.20;;;8.00;67.30;;;;;;5066921;28;20115;-78
2022/03/27 06:19:03;;;;;;;22.85;12.18;;;8.30;66.60;;;;;;5065893;28;20028;-78
2022/03/27 06:21:29;;;;;;;22.92;12.07;;;8.70;65.40;;;;;;5065994;28;20028;-76
2022/03/27 06:23:55;;;;;;;22.02;12.18;;;9.00;64.40;;;;;;5075570;28;20033;-75
2022/03/27 06:26:21;;;;;;;21.15;12.10;;;9.40;63.30;;;;;;5068472;28;20032;-76
2022/03/27 06:28:47;;;;;;;22.27;12.15;;;9.80;62.00;;;;;;5070710;28;20063;-76
2022/03/27 06:31:13;;;;;;;22.05;12.07;;;10.20;60.50;;;;;;5062277;28;20044;-77
2022/03/27 06:33:39;;;;;;;22.63;12.48;;;10.60;59.10;;;;;;5073435;28;20349;-76
2022/03/27 06:36:05;;;;;;;20.73;12.13;;;11.00;57.40;;;;;;5072466;28;20040;-77
2022/03/27 06:38:31;;;;;;;23.55;12.85;;;11.50;55.80;;;;;;5077076;28;20074;-76
2022/03/27 06:40:57;;;;;;;20.27;12.70;;;11.90;54.30;;;;;;5064793;28;20514;-77
2022/03/27 06:43:23;;;;;;;23.48;12.35;;;12.30;52.90;;;;;;5066763;28;20055;-78
2022/03/27 06:45:49;;;;;;;23.48;13.32;;;12.80;51.60;;;;;;5077382;28;20040;-77
2022/03/27 06:48:15;;;;;;;29.88;16.98;;;13.30;50.30;;;;;;5075999;28;20103;-79
2022/03/27 06:50:44;;;;;;;27.38;16.80;;;13.80;48.90;;;;;;5080319;28;20538;-80
2022/03/27 06:53:10;;;;;;;31.50;19.58;;;14.30;47.70;;;;;;5080811;28;20146;-79
2022/03/27 06:55:37;;;;;;;32.65;18.02;;;14.80;46.50;;;;;;5064073;28;20031;-77
2022/03/27 06:58:03;;;;;;;37.50;21.85;;;15.40;45.20;;;;;;5071149;28;20394;-77
2022/03/27 07:03:13;;;;;;;41.33;25.83;;;17.30;39.00;;;;;;5067920;28;20028;-78
2022/03/27 07:05:41;;;;;;;41.90;24.42;;;17.10;39.70;;;;;;5068296;28;20033;-79
2022/03/27 07:08:11;;;;;;;42.83;24.27;;;17.70;38.30;;;;;;5067785;28;20036;-79
2022/03/27 07:10:38;;;;;;;41.45;23.48;;;18.30;37.00;;;;;;5068910;28;20025;-80
2022/03/27 07:13:05;;;;;;;42.05;24.60;;;18.90;36.00;;;;;;5089219;28;20040;-80
2022/03/27 07:15:31;;;;;;;40.63;25.42;;;19.40;34.50;;;;;;5081291;28;20024;-80
2022/03/27 07:17:59;;;;;;;39.45;25.25;;;20.00;33.30;;;;;;5069443;28;20108;-80
2022/03/27 07:20:29;;;;;;;40.03;25.30;;;20.50;32.30;;;;;;5072635;28;20038;-79
2022/03/27 07:23:04;;;;;;;43.35;25.17;;;21.00;30.90;;;;;;5075034;28;20368;-79
2022/03/27 07:25:33;;;;;;;41.78;25.50;;;21.60;30.00;;;;;;5075130;28;20029;-79
2022/03/27 07:28:00;;;;;;;42.83;25.67;;;22.10;29.20;;;;;;5056404;28;20108;-80
2022/03/27 07:30:26;;;;;;;40.97;24.88;;;22.50;28.50;;;;;;5068831;28;20027;-79
2022/03/27 07:32:52;;;;;;;37.90;25.08;;;23.00;28.60;;;;;;5064466;28;20040;-79
2022/03/27 07:35:19;;;;;;;42.53;25.33;;;23.40;27.20;;;;;;5081416;28;20028;-80
2022/03/27 07:37:45;;;;;;;43.00;25.38;;;23.90;26.50;;;;;;5080377;28;20023;-80
2022/03/27 07:40:12;;;;;;;39.15;25.83;;;24.30;26.00;;;;;;5077980;28;20047;-80
2022/03/27 07:42:41;;;;;;;37.78;26.02;;;24.70;25.60;;;;;;5072888;28;20013;-80
2022/03/27 07:45:09;;;;;;;42.22;25.23;;;25.10;25.10;;;;;;5075180;28;20072;-80
2022/03/27 07:47:34;;;;;;;39.97;24.80;;;25.50;24.50;;;;;;5071561;28;20041;-78
2022/03/27 07:50:00;;;;;;;37.40;24.75;;;25.90;24.00;;;;;;5076850;28;20044;-79
2022/03/27 07:52:27;;;;;;;38.75;24.67;;;26.10;23.70;;;;;;5071995;28;20021;-80
2022/03/27 07:54:53;;;;;;;36.60;24.30;;;26.50;23.40;;;;;;5065810;28;20074;-79
2022/03/27 07:57:22;;;;;;;35.38;24.63;;;26.80;22.70;;;;;;5069121;28;20478;-79
2022/03/27 07:59:49;;;;;;;36.92;24.75;;;27.10;22.60;;;;;;5068814;28;21317;-79
2022/03/27 08:02:16;;;;;;;34.35;24.50;;;27.30;22.40;;;;;;5071898;28;20029;-80
2022/03/27 08:04:42;;;;;;;35.30;24.10;;;27.70;22.30;;;;;;5067863;28;20028;-80
2022/03/27 08:07:08;;;;;;;36.45;25.00;;;28.00;21.40;;;;;;5067921;28;20471;-79
2022/03/27 08:09:34;;;;;;;38.85;24.13;;;28.40;21.00;;;;;;5069717;28;20036;-80
2022/03/27 08:12:00;;;;;;;36.60;25.13;;;28.70;21.10;;;;;;5072514;28;20090;-79
2022/03/27 08:14:31;;;;;;;36.65;24.52;;;29.00;20.80;;;;;;5063679;28;20830;-78
2022/03/27 08:16:58;;;;;;;36.17;23.95;;;29.30;20.40;;;;;;5069314;28;20116;-79
2022/03/27 08:19:28;;;;;;;35.40;24.27;;;29.70;20.20;;;;;;5067001;28;20047;-79
2022/03/27 08:21:54;;;;;;;36.75;24.60;;;30.10;19.40;;;;;;5070414;28;20031;-78
2022/03/27 08:24:20;;;;;;;34.53;23.08;;;30.30;19.10;;;;;;5088636;28;20032;-79
2022/03/27 08:26:55;;;;;;;36.15;23.80;;;30.60;18.50;;;;;;5080255;28;20028;-79
2022/03/27 08:29:23;;;;;;;36.13;23.65;;;30.70;18.20;;;;;;5066342;28;20071;-79
2022/03/27 08:31:50;;;;;;;36.13;23.90;;;30.80;18.40;;;;;;5075878;28;20066;-78
2022/03/27 08:34:17;;;;;;;36.63;23.73;;;31.00;18.10;;;;;;5071981;28;20024;-79
2022/03/27 08:36:44;;;;;;;35.95;24.27;;;31.20;18.00;;;;;;5069411;28;20033;-79
2022/03/27 08:39:10;;;;;;;38.03;23.05;;;31.50;17.90;;;;;;5065453;28;20131;-78
2022/03/27 08:41:36;;;;;;;31.45;22.60;;;31.70;17.80;;;;;;5070856;28;20036;-79
2022/03/27 08:44:02;;;;;;;40.15;26.40;;;32.10;17.40;;;;;;5071439;28;20380;-78
2022/03/27 08:46:31;;;;;;;42.38;25.50;;;32.30;17.50;;;;;;5070249;28;20103;-78
2022/03/27 08:49:01;;;;;;;36.72;22.23;;;32.70;17.10;;;;;;5074070;28;20028;-77
2022/03/27 08:51:33;;;;;;;37.75;25.58;;;33.10;16.80;;;;;;5070454;28;20032;-78
2022/03/27 08:54:16;;;;;;;36.33;22.98;;;33.40;16.50;;;;;;5067268;28;20174;-79
2022/03/27 08:56:53;;;;;;;33.92;22.75;;;33.90;16.20;;;;;;5070909;28;20050;-81
2022/03/27 08:59:19;;;;;;;33.15;21.95;;;34.40;15.70;;;;;;5064273;28;20079;-79
2022/03/27 09:01:46;;;;;;;33.05;21.45;;;34.60;15.40;;;;;;5076201;28;20028;-81
2022/03/27 09:04:14;;;;;;;32.47;21.90;;;35.00;15.00;;;;;;5072989;28;20032;-82
2022/03/27 09:06:39;;;;;;;33.70;21.25;;;35.30;15.20;;;;;;5079494;28;20027;-80
2022/03/27 09:09:06;;;;;;;29.88;21.73;;;35.70;14.70;;;;;;5077607;28;20032;-81
2022/03/27 09:11:34;;;;;;;30.10;20.88;;;36.00;14.60;;;;;;5065997;28;20025;-81
2022/03/27 09:14:03;;;;;;;30.25;21.65;;;36.50;13.70;;;;;;5079563;28;20070;-81
2022/03/27 09:16:29;;;;;;;31.92;22.02;;;36.80;13.50;;;;;;5074981;28;20017;-84
2022/03/27 09:19:01;;;;;;;30.48;20.90;;;36.90;13.10;;;;;;5071342;28;20505;-82
2022/03/27 09:21:28;;;;;;;31.40;20.65;;;37.00;13.10;;;;;;5067664;28;20021;-81
2022/03/27 09:23:59;;;;;;;29.20;20.85;;;37.20;12.90;;;;;;5070881;28;20063;-81
2022/03/27 09:26:27;;;;;;;26.52;20.67;;;37.60;13.40;;;;;;5072015;28;20107;-80
2022/03/27 09:29:04;;;;;;;30.73;21.20;;;38.00;12.80;;;;;;5071527;28;20074;-80
2022/03/27 09:31:30;;;;;;;40.13;23.30;;;38.30;12.70;;;;;;5068990;28;20032;-80
2022/03/27 09:34:03;;;;;;;53.63;26.25;;;38.70;13.20;;;;;;5066140;28;20100;-80
2022/03/27 09:36:34;;;;;;;42.08;21.38;;;39.10;13.20;;;;;;5068474;28;20051;-80
2022/03/27 09:39:04;;;;;;;31.30;20.38;;;39.60;12.70;;;;;;5066548;28;20050;-80
2022/03/27 09:41:45;;;;;;;27.35;20.40;;;39.60;11.90;;;;;;5066603;28;20776;-80
2022/03/27 09:44:18;;;;;;;28.98;20.02;;;39.80;11.60;;;;;;5076767;28;20491;-79
2022/03/27 09:46:54;;;;;;;29.30;20.77;;;40.20;11.90;;;;;;5075854;28;20629;-77
2022/03/27 09:49:43;;;;;;;29.02;20.13;;;40.40;11.10;;;;;;5069330;28;20028;-79
2022/03/27 09:52:14;;;;;;;29.17;20.73;;;40.70;11.30;;;;;;5072109;28;20028;-82
2022/03/27 09:55:13;;;;;;;24.80;20.10;;;41.10;11.00;;;;;;5068059;28;20056;-81
2022/03/27 09:57:40;;;;;;;26.50;19.65;;;41.20;10.80;;;;;;5050638;28;20029;-81
2022/03/27 10:00:18;;;;;;;24.30;19.52;;;41.50;11.50;;;;;;5061769;28;20060;-82
2022/03/27 10:02:46;;;;;;;29.95;19.75;;;42.00;11.50;;;;;;5044297;28;20056;-80
2022/03/27 10:05:13;;;;;;;26.13;19.60;;;42.50;11.00;;;;;;5048034;28;20029;-80
2022/03/27 10:07:44;;;;;;;26.38;19.80;;;42.80;11.20;;;;;;5050978;28;20529;-78
2022/03/27 10:10:15;;;;;;;28.00;19.85;;;42.90;10.30;;;;;;5047366;28;20036;-78
2022/03/27 10:12:43;;;;;;;27.30;20.70;;;43.30;9.50;;;;;;5052013;28;20586;-77
2022/03/27 10:15:28;;;;;;;25.08;19.83;;;43.30;9.40;;;;;;5057664;28;20029;-77
2022/03/27 10:18:06;;;;;;;28.50;19.88;;;43.20;9.70;;;;;;5049178;28;20068;-77
2022/03/27 10:20:36;;;;;;;24.48;19.88;;;43.60;9.70;;;;;;5046917;28;20411;-77
2022/03/27 10:23:18;;;;;;;24.52;18.98;;;43.70;9.90;;;;;;5050934;28;20143;-77
2022/03/27 10:25:48;;;;;;;23.90;19.85;;;44.00;9.60;;;;;;5047638;28;20175;-81
2022/03/27 10:28:14;;;;;;;;;;;44.10;9.30;;;;;;5046259;28;20033;-79
2022/03/27 10:30:41;;;;;;;25.85;19.25;;;44.40;9.40;;;;;;5056728;28;19917;-77
2022/03/27 10:33:09;;;;;;;27.58;19.98;;;44.70;9.10;;;;;;5070057;28;20041;-78
2022/03/27 10:36:05;;;;;;;35.03;30.05;;;44.70;8.70;;;;;;5074796;28;20518;-78
2022/03/27 10:38:43;;;;;;;26.85;20.48;;;44.70;9.00;;;;;;5074109;28;20040;-78
2022/03/27 10:41:17;;;;;;;29.08;19.63;;;44.80;8.80;;;;;;5068273;28;20108;-79
2022/03/27 10:44:01;;;;;;;27.55;19.40;;;45.10;9.00;;;;;;5066927;28;20170;-77
2022/03/27 10:46:29;;;;;;;24.25;19.60;;;45.60;9.20;;;;;;5068585;28;20027;-80
2022/03/27 10:49:12;;;;;;;26.85;19.63;;;46.00;8.60;;;;;;5070170;28;20040;-77
2022/03/27 10:51:46;;;;;;;29.73;24.55;;;45.80;7.50;;;;;;5077626;28;20056;-77
2022/03/27 10:54:19;;;;;;;24.42;19.20;;;46.20;7.70;;;;;;5071985;28;21007;-76
2022/03/27 10:56:51;;;;;;;26.92;19.17;;;46.20;7.50;;;;;;5073241;28;20518;-78
2022/03/27 10:59:20;;;;;;;26.65;19.63;;;46.70;14.20;;;;;;5083863;28;20110;-77
2022/03/27 11:01:47;;;;;;;;;;;46.40;8.20;;;;;;5067461;28;20390;-76
2022/03/27 11:04:23;;;;;;;25.63;20.02;;;46.40;17.60;;;;;;5069795;28;20355;-79
2022/03/27 11:06:51;;;;;;;26.70;19.08;;;46.70;19.00;;;;;;5067694;28;20082;-78
2022/03/27 11:09:35;;;;;;;23.80;18.67;;;46.90;8.00;;;;;;5072895;28;20043;-79
2022/03/27 11:12:04;;;;;;;27.45;18.55;;;47.00;24.40;;;;;;5070723;28;20519;-78
2022/03/27 11:14:52;;;;;;;24.98;19.30;;;47.10;25.60;;;;;;5072014;28;20094;-80
2022/03/27 11:17:29;;;;;;;27.42;19.35;;;47.70;7.50;;;;;;5093358;28;20039;-79
2022/03/27 11:19:55;;;;;;;26.23;18.88;;;;;;;;;;5070709;28;20039;-78
2022/03/27 11:22:39;;;;;;;25.65;18.73;;;46.80;21.10;;;;;;5067240;28;20036;-77
2022/03/27 11:25:24;;;;;;;24.98;18.63;;;47.80;7.40;;;;;;5070874;28;20093;-78
2022/03/27 11:28:11;;;;;;;23.85;19.58;;;47.80;7.20;;;;;;5075175;28;20064;-80
2022/03/27 11:30:59;;;;;;;25.00;19.52;;;47.30;8.30;;;;;;5058629;28;20071;-79
2022/03/27 11:33:29;;;;;;;26.60;19.35;;;47.00;8.10;;;;;;5071482;28;20506;-77
2022/03/27 11:36:00;;;;;;;25.65;19.23;;;46.90;11.40;;;;;;5069718;28;20086;-78
2022/03/27 11:38:28;;;;;;;24.02;19.33;;;47.20;7.10;;;;;;5062280;28;20025;-78
2022/03/27 11:40:55;;;;;;;25.42;18.48;;;;;;;;;;5068791;28;20092;-77
2022/03/27 11:43:29;;;;;;;25.85;19.02;;;47.10;14.30;;;;;;5083003;28;20032;-77
2022/03/27 11:45:57;;;;;;;22.85;18.70;;;47.60;10.90;;;;;;5067840;28;20118;-79
2022/03/27 11:48:23;;;;;;;28.10;18.95;;;;;;;;;;5069774;28;20051;-77
2022/03/27 11:50:49;;;;;;;27.27;19.20;;;;;;;;;;5072092;28;20113;-78
2022/03/27 11:53:16;;;;;;;23.15;19.50;;;;;;;;;;5071206;28;20082;-78
2022/03/27 11:55:42;;;;;;;24.48;19.10;;;47.10;11.00;;;;;;5070741;28;20043;-78
2022/03/27 11:58:10;;;;;;;26.70;19.38;;;46.20;7.80;;;;;;5068159;28;20032;-77
2022/03/27 12:00:40;;;;;;;;;;;47.10;7.00;;;;;;5069277;28;20035;-78
2022/03/27 12:03:24;;;;;;;28.17;21.02;;;47.00;11.30;;;;;;5072726;28;19999;-78
2022/03/27 12:05:51;;;;;;;25.42;18.92;;;46.90;13.30;;;;;;5067041;28;20024;-78
2022/03/27 12:08:17;;;;;;;27.23;19.98;;;47.40;12.40;;;;;;5069828;28;20028;-78
2022/03/27 12:10:49;;;;;;;52.90;19.75;;;47.70;9.60;;;;;;5067630;28;20125;-79
2022/03/27 12:13:16;;;;;;;27.33;18.70;;;47.70;7.70;;;;;;5067516;28;20103;-78
2022/03/27 12:15:49;;;;;;;24.08;18.02;;;48.80;9.10;;;;;;5064604;28;20032;-79
2022/03/27 12:18:39;;;;;;;22.33;16.60;;;49.10;11.80;;;;;;5069698;28;20024;-77
2022/03/27 12:21:09;;;;;;;23.95;17.45;;;48.80;11.80;;;;;;5065394;28;20434;-76
2022/03/27 12:24:07;;;;;;;28.17;17.67;;;48.60;8.60;;;;;;5067815;28;20048;-75
2022/03/27 12:32:13;;;;;;;23.00;16.63;;;48.80;16.70;;;;;;5047665;28;20115;-80
2022/03/27 12:34:50;;;;;;;22.00;17.15;;;48.90;9.80;;;;;;5046023;28;20032;-80
2022/03/27 12:37:26;;;;;;;20.63;17.13;;;48.80;9.80;;;;;;5049523;28;20041;-81
2022/03/27 12:39:51;;;;;;;22.48;16.88;;;49.00;9.40;;;;;;5046675;28;20068;-76
2022/03/27 12:42:46;;;;;;;22.83;16.70;;;49.20;7.30;;;;;;5037970;28;20525;-77
2022/03/27 12:45:16;;;;;;;24.05;17.02;;;49.00;10.30;;;;;;5048160;28;20037;-80
2022/03/27 12:47:51;;;;;;;23.50;17.30;;;48.90;7.10;;;;;;5033253;28;20393;-79
2022/03/27 12:50:25;;;;;;;20.10;17.17;;;48.10;8.00;;;;;;5029519;28;20052;-78